Glidden, Wisconsin
Current Conditions -  °F | °C
As of 4:15 PM on Sunday 25 Jan 2015 (Local Time) from KPBH Reporting Station
Overcast Overcast  
Wind Chill: 19°   Ceiling: 11000
Heat Index: 19°   Visibility: 10mi
Dew Point:   Wind: 0mph
Humidity: 57%   Direction: NA
Pressure: 29.99"   Gusts: NA
Location:  46.13°N, 90.58°W
Report Text: KPBH 252215Z AUTO 00000KT 10SM OVC110 M07/M14 A2999 RMK AO2 T10711143
Loading
Personal Weather Stations






























Interactive Weather Map New forecast layout! Learn more

10-Day Weather Forecast

Advertisements
Track Severe Weather on mobile